Time;durP1;ratioP1;P1;durP2;ratioP2;P2;SDS_P1;SDS_P2;PMS_P1;PMS_P2;Temp;Humidity;BMP_temperature;BMP_pressure;BME280_temperature;BME280_humidity;BME280_pressure;Samples;Min_cycle;Max_cycle;Signal;HPM_P1;HPM_P2
2021/03/14 00:00:01;;;;;;;2.53;1.30;;;;;;;;;;10392897;28;20030;-87
2021/03/14 00:05:02;;;;;;;2.30;0.98;;;;;;;;;;10392269;28;20049;-87
2021/03/14 00:10:03;;;;;;;2.05;1.10;;;;;;;;;;10392550;28;20488;-87
2021/03/14 00:15:05;;;;;;;3.35;1.20;;;;;;;;;;10393194;28;20057;-86
2021/03/14 00:20:07;;;;;;;2.05;1.20;;;;;;;;;;10392630;28;20473;-86
2021/03/14 00:25:09;;;;;;;2.70;1.00;;;;;;;;;;10392271;28;20073;-86
2021/03/14 00:30:12;;;;;;;2.35;0.98;;;;;;;;;;10392460;28;20030;-86
2021/03/14 00:35:14;;;;;;;2.47;0.90;;;;;;;;;;10392259;28;20034;-86
2021/03/14 00:40:16;;;;;;;2.47;1.00;;;;;;;;;;10390524;28;20076;-87
2021/03/14 00:45:17;;;;;;;2.92;1.02;;;;;;;;;;10392565;28;20034;-86
2021/03/14 00:50:18;;;;;;;2.97;1.60;;;;;;;;;;10392667;28;20041;-85
2021/03/14 00:55:19;;;;;;;2.05;1.00;;;;;;;;;;10400354;28;20054;-86
2021/03/14 01:00:20;;;;;;;2.72;1.10;;;;;;;;;;10408083;28;20038;-85
2021/03/14 01:05:21;;;;;;;3.15;1.08;;;;;;;;;;10410820;28;20067;-86
2021/03/14 01:10:22;;;;;;;4.25;1.20;;;;;;;;;;10406928;28;20034;-86
2021/03/14 01:15:23;;;;;;;3.45;1.20;;;;;;;;;;10392110;28;20060;-86
2021/03/14 01:20:24;;;;;;;2.13;0.93;;;;;;;;;;10399699;28;20057;-86
2021/03/14 01:25:25;;;;;;;3.17;1.38;;;;;;;;;;10402009;28;20076;-86
2021/03/14 01:30:26;;;;;;;2.67;1.17;;;;;;;;;;10402586;28;20115;-86
2021/03/14 01:35:28;;;;;;;2.65;1.15;;;;;;;;;;10393482;28;20392;-86
2021/03/14 01:40:29;;;;;;;4.18;1.38;;;;;;;;;;10391459;28;20037;-85
2021/03/14 01:45:30;;;;;;;3.78;1.45;;;;;;;;;;10391218;28;20073;-85
2021/03/14 01:50:31;;;;;;;3.20;1.23;;;;;;;;;;10388134;28;20037;-85
2021/03/14 01:55:32;;;;;;;3.15;1.42;;;;;;;;;;10400198;28;20038;-85
2021/03/14 02:00:33;;;;;;;5.45;1.73;;;;;;;;;;10403510;28;20040;-85
2021/03/14 02:05:34;;;;;;;2.65;1.08;;;;;;;;;;10401540;28;20054;-86
2021/03/14 02:10:36;;;;;;;2.60;1.20;;;;;;;;;;10382855;28;20496;-86
2021/03/14 02:15:40;;;;;;;2.83;1.20;;;;;;;;;;10381897;28;20061;-86
2021/03/14 02:20:42;;;;;;;2.75;1.40;;;;;;;;;;10381226;28;20030;-87
2021/03/14 02:25:50;;;;;;;3.88;1.23;;;;;;;;;;10381269;28;20576;-87
2021/03/14 02:30:52;;;;;;;4.10;1.42;;;;;;;;;;10381025;28;20128;-86
2021/03/14 02:35:54;;;;;;;3.00;1.50;;;;;;;;;;10381684;28;20042;-86
2021/03/14 02:40:59;;;;;;;3.30;1.60;;;;;;;;;;10380763;28;20388;-86
2021/03/14 02:46:01;;;;;;;2.42;1.20;;;;;;;;;;10380752;28;20041;-87
2021/03/14 02:51:03;;;;;;;3.70;1.40;;;;;;;;;;10380770;28;20096;-87
2021/03/14 02:56:05;;;;;;;4.70;1.63;;;;;;;;;;10380994;28;20507;-86
2021/03/14 03:01:07;;;;;;;5.18;1.70;;;;;;;;;;10379776;28;20033;-86
2021/03/14 03:06:09;;;;;;;3.67;1.77;;;;;;;;;;10380616;28;20049;-87
2021/03/14 03:11:13;;;;;;;5.10;1.67;;;;;;;;;;10379642;28;20057;-87
2021/03/14 03:16:16;;;;;;;3.60;1.63;;;;;;;;;;10381495;28;20408;-86
2021/03/14 03:21:17;;;;;;;4.22;1.92;;;;;;;;;;10395942;28;20030;-87
2021/03/14 03:26:18;;;;;;;4.10;2.10;;;;;;;;;;10395936;28;20034;-87
2021/03/14 03:31:19;;;;;;;4.88;2.42;;;;;;;;;;10391078;28;20045;-87
2021/03/14 03:36:23;;;;;;;3.25;1.55;;;;;;;;;;10381666;28;20038;-86
2021/03/14 03:41:26;;;;;;;4.10;1.90;;;;;;;;;;10393692;28;20034;-86
2021/03/14 03:46:27;;;;;;;7.07;2.65;;;;;;;;;;10393831;28;20045;-85
2021/03/14 03:51:29;;;;;;;4.18;2.03;;;;;;;;;;10392004;28;20057;-85
2021/03/14 03:56:31;;;;;;;4.95;2.10;;;;;;;;;;10393975;28;20072;-85
2021/03/14 04:01:33;;;;;;;4.47;1.67;;;;;;;;;;10392537;28;20202;-86
2021/03/14 04:06:35;;;;;;;4.10;1.80;;;;;;;;;;10396936;28;20038;-86
2021/03/14 04:11:39;;;;;;;4.05;1.85;;;;;;;;;;10396997;28;20041;-86
2021/03/14 04:16:40;;;;;;;3.40;1.73;;;;;;;;;;10403603;28;20038;-85
2021/03/14 04:21:42;;;;;;;5.85;2.20;;;;;;;;;;10408861;28;20112;-86
2021/03/14 04:26:44;;;;;;;6.00;2.47;;;;;;;;;;10416780;28;20038;-86
2021/03/14 04:31:46;;;;;;;5.07;2.40;;;;;;;;;;10419531;28;20451;-85
2021/03/14 04:36:48;;;;;;;5.38;1.98;;;;;;;;;;10400925;28;20037;-86
2021/03/14 08:29:42;;;;;;;3.08;1.95;;;;;;;;;;10383089;28;20038;-88
2021/03/14 10:29:58;;;;;;;4.88;4.38;;;;;;;;;;10384132;28;20084;-88
2021/03/14 21:05:07;;;;;;;9.25;3.00;;;;;;;;;;10399430;28;20093;-86
